createdAt,value
2018-07-05T00:00:31.410Z,69.00
2018-07-05T00:03:10.405Z,69.00
2018-07-05T00:05:49.473Z,68.80
2018-07-05T00:08:28.482Z,68.60
2018-07-05T00:11:07.290Z,68.50
2018-07-05T00:13:46.230Z,68.50
2018-07-05T00:16:25.334Z,68.40
2018-07-05T00:19:04.246Z,68.40
2018-07-05T00:21:43.299Z,69.20
2018-07-05T00:24:22.233Z,68.70
2018-07-05T00:27:01.235Z,69.10
2018-07-05T00:29:40.239Z,68.80
2018-07-05T00:32:19.362Z,68.90
2018-07-05T00:34:58.420Z,68.20
2018-07-05T00:37:37.396Z,67.50
2018-07-05T00:40:16.464Z,67.50
2018-07-05T00:42:55.496Z,67.50
2018-07-05T00:45:34.440Z,67.70
2018-07-05T00:48:13.514Z,67.80
2018-07-05T00:50:52.429Z,68.00
2018-07-05T00:53:31.398Z,68.10
2018-07-05T00:56:10.410Z,68.10
2018-07-05T00:58:49.318Z,67.90
2018-07-05T01:01:28.425Z,68.20
2018-07-05T01:04:07.581Z,68.80
2018-07-05T01:06:46.692Z,68.50
2018-07-05T01:09:25.600Z,68.50
2018-07-05T01:12:04.680Z,68.70
2018-07-05T01:14:43.573Z,69.00
2018-07-05T01:17:22.669Z,69.20
2018-07-05T01:20:01.748Z,69.80
2018-07-05T01:22:40.691Z,70.40
2018-07-05T01:25:19.863Z,71.00
2018-07-05T01:27:58.955Z,71.30
2018-07-05T01:30:38.049Z,71.40
2018-07-05T01:33:17.106Z,71.40
2018-07-05T01:35:55.914Z,71.40
2018-07-05T01:38:35.025Z,71.40
2018-07-05T01:41:14.113Z,71.40
2018-07-05T01:43:53.019Z,71.50
2018-07-05T01:46:32.133Z,71.50
2018-07-05T01:49:10.997Z,72.10
2018-07-05T01:51:50.034Z,72.30
2018-07-05T01:54:29.037Z,72.50
2018-07-05T01:57:08.146Z,72.50
2018-07-05T01:59:47.064Z,72.20
2018-07-05T02:02:25.995Z,72.20
2018-07-05T02:05:04.970Z,72.00
2018-07-05T02:07:43.875Z,72.00
2018-07-05T02:10:22.890Z,71.90
2018-07-05T02:13:01.998Z,71.70
2018-07-05T02:15:41.302Z,71.90
2018-07-05T02:18:20.134Z,72.60
2018-07-05T02:20:59.316Z,72.00
2018-07-05T02:23:38.274Z,72.20
2018-07-05T02:26:17.184Z,72.40
2018-07-05T02:28:56.103Z,72.80
2018-07-05T02:31:35.056Z,72.90
2018-07-05T02:34:14.107Z,73.00
2018-07-05T02:36:53.026Z,72.90
2018-07-05T02:39:37.920Z,73.10
2018-07-05T02:42:16.947Z,73.20
2018-07-05T02:44:55.930Z,73.10
2018-07-05T02:47:35.030Z,73.00
2018-07-05T02:50:14.193Z,72.80
2018-07-05T02:52:53.125Z,72.80
2018-07-05T02:55:32.155Z,72.60
2018-07-05T02:58:11.141Z,72.50
2018-07-05T03:00:50.178Z,72.40
2018-07-05T03:03:29.344Z,72.40
2018-07-05T03:06:08.267Z,72.40
2018-07-05T03:08:47.147Z,72.40
2018-07-05T03:11:26.315Z,72.40
2018-07-05T03:14:05.321Z,72.50
2018-07-05T03:16:44.345Z,72.60
2018-07-05T03:19:23.447Z,72.70
2018-07-05T03:22:02.663Z,72.80
2018-07-05T03:24:41.815Z,72.70
2018-07-05T03:27:21.279Z,72.90
2018-07-05T03:30:00.179Z,72.80
2018-07-05T03:32:39.215Z,73.00
2018-07-05T03:35:18.273Z,72.90
2018-07-05T03:37:57.306Z,73.10
2018-07-05T03:40:36.275Z,73.50
2018-07-05T03:43:15.358Z,73.60
2018-07-05T03:45:54.205Z,73.80
2018-07-05T03:48:33.167Z,73.80
2018-07-05T03:51:12.332Z,73.90
2018-07-05T03:53:51.420Z,74.00
2018-07-05T03:56:30.482Z,74.20
2018-07-05T03:59:09.585Z,74.20
2018-07-05T04:01:48.569Z,74.30
2018-07-05T04:04:27.859Z,74.50
2018-07-05T04:07:06.807Z,74.40
2018-07-05T04:09:45.802Z,74.30
2018-07-05T04:12:24.773Z,74.40
2018-07-05T04:15:03.802Z,74.60
2018-07-05T04:17:42.660Z,74.60
2018-07-05T04:20:21.775Z,74.80
2018-07-05T04:23:00.946Z,74.70
2018-07-05T04:25:39.877Z,74.70
2018-07-05T04:28:19.038Z,74.80
2018-07-05T04:30:58.034Z,75.00
2018-07-05T04:33:37.083Z,75.10
2018-07-05T04:36:16.035Z,75.20
2018-07-05T04:38:55.075Z,75.30
2018-07-05T04:41:34.215Z,75.30
2018-07-05T04:44:13.332Z,75.60
2018-07-05T04:46:52.495Z,75.90
2018-07-05T04:49:31.519Z,76.00
2018-07-05T04:52:10.547Z,76.10
2018-07-05T04:54:49.614Z,76.30
2018-07-05T04:57:28.650Z,76.20
2018-07-05T05:00:07.718Z,76.50
2018-07-05T05:02:46.881Z,76.90
2018-07-05T05:05:25.813Z,77.10
2018-07-05T05:08:04.876Z,77.30
2018-07-05T05:10:43.886Z,77.40
2018-07-05T05:13:23.014Z,77.80
2018-07-05T05:16:02.256Z,78.10
2018-07-05T05:18:41.543Z,78.30
2018-07-05T05:21:20.731Z,78.40
2018-07-05T05:23:59.698Z,78.70
2018-07-05T05:26:38.620Z,78.80
2018-07-05T05:29:17.691Z,79.10
2018-07-05T05:31:57.811Z,79.30
2018-07-05T05:34:36.805Z,79.50
2018-07-05T05:37:15.833Z,79.60
2018-07-05T05:39:54.813Z,79.60
2018-07-05T05:42:33.938Z,79.50
2018-07-05T05:45:13.066Z,79.40
2018-07-05T05:47:52.022Z,79.50
2018-07-05T05:50:31.156Z,79.50
2018-07-05T05:53:10.207Z,79.40
2018-07-05T05:55:49.118Z,79.50
2018-07-05T05:58:28.289Z,79.30
2018-07-05T06:01:07.456Z,79.20
2018-07-05T06:03:46.425Z,79.20
2018-07-05T06:06:25.583Z,79.30
2018-07-05T06:09:04.854Z,79.60
2018-07-05T06:11:43.784Z,79.40
2018-07-05T06:14:22.710Z,79.70
2018-07-05T06:17:01.670Z,79.60
2018-07-05T06:19:40.591Z,79.60
2018-07-05T06:22:19.764Z,79.70
2018-07-05T06:24:58.876Z,80.00
2018-07-05T06:27:38.149Z,80.20
2018-07-05T06:30:17.262Z,80.30
2018-07-05T06:32:56.241Z,80.50
2018-07-05T06:35:35.291Z,80.70
2018-07-05T06:38:14.283Z,81.00
2018-07-05T06:40:53.309Z,81.10
2018-07-05T06:43:32.370Z,81.10
2018-07-05T06:46:11.352Z,81.00
2018-07-05T06:51:23.796Z,82.00
2018-07-05T06:54:02.983Z,81.60
2018-07-05T06:56:42.017Z,81.90
2018-07-05T06:59:21.082Z,82.00
2018-07-05T07:02:00.003Z,82.10
2018-07-05T07:04:39.007Z,82.20
2018-07-05T07:07:18.154Z,82.30
2018-07-05T07:09:57.393Z,82.30
2018-07-05T07:12:36.511Z,82.20
2018-07-05T07:15:15.681Z,82.60
2018-07-05T07:17:54.762Z,82.70
2018-07-05T07:20:33.693Z,82.90
2018-07-05T07:23:12.753Z,82.90
2018-07-05T07:25:51.629Z,82.90
2018-07-05T07:28:30.857Z,83.00
2018-07-05T07:31:10.338Z,83.10
2018-07-05T07:33:49.230Z,83.10
2018-07-05T07:36:28.172Z,83.60
2018-07-05T07:41:40.390Z,83.50
2018-07-05T07:44:07.077Z,83.50
2018-07-05T07:46:33.539Z,83.40
2018-07-05T07:49:00.036Z,83.60
2018-07-05T07:51:26.539Z,83.50
2018-07-05T07:53:53.151Z,82.80
2018-07-05T07:56:19.702Z,82.80
2018-07-05T07:58:46.181Z,83.10
2018-07-05T08:01:12.677Z,83.30
2018-07-05T08:03:39.829Z,83.90
2018-07-05T08:06:06.298Z,84.30
2018-07-05T08:08:32.928Z,83.40
2018-07-05T08:10:59.384Z,83.20
2018-07-05T08:13:25.814Z,83.10
2018-07-05T08:15:53.115Z,82.00
2018-07-05T08:18:19.706Z,81.80
2018-07-05T08:20:46.243Z,82.10
2018-07-05T08:23:12.758Z,81.90
2018-07-05T08:25:39.215Z,79.80
2018-07-05T08:28:05.658Z,80.30
2018-07-05T08:30:32.124Z,80.10
2018-07-05T08:32:58.578Z,80.70
2018-07-05T08:35:25.093Z,88.90
2018-07-05T08:37:51.640Z,82.80
2018-07-05T08:40:18.076Z,81.80
2018-07-05T08:42:44.750Z,80.20
2018-07-05T08:45:11.222Z,79.00
2018-07-05T08:47:37.731Z,79.40
2018-07-05T08:50:04.360Z,79.40
2018-07-05T08:52:30.894Z,79.60
2018-07-05T08:54:57.393Z,79.00
2018-07-05T08:57:23.862Z,79.40
2018-07-05T08:59:50.385Z,79.00
2018-07-05T09:02:16.850Z,79.30
2018-07-05T09:04:43.274Z,78.00
2018-07-05T09:07:09.714Z,78.20
2018-07-05T09:09:36.217Z,76.50
2018-07-05T09:12:02.685Z,74.60
2018-07-05T09:14:29.104Z,75.40
2018-07-05T09:16:55.588Z,76.00
2018-07-05T09:19:22.083Z,76.70
2018-07-05T09:21:48.607Z,76.50
2018-07-05T09:24:15.144Z,76.30
2018-07-05T09:26:41.767Z,76.00
2018-07-05T09:29:08.266Z,75.60
2018-07-05T09:31:34.829Z,75.50
2018-07-05T09:38:55.313Z,74.40
2018-07-05T09:41:21.775Z,74.80
2018-07-05T09:43:48.293Z,74.20
2018-07-05T09:48:41.674Z,73.80
2018-07-05T09:51:08.133Z,73.90
2018-07-05T09:53:34.610Z,73.60
2018-07-05T09:56:01.246Z,73.90
2018-07-05T09:58:27.731Z,73.80
2018-07-05T10:00:54.196Z,73.80
2018-07-05T10:03:21.643Z,73.40
2018-07-05T10:05:48.459Z,73.90
2018-07-05T10:08:15.911Z,74.10
2018-07-05T10:10:42.637Z,74.60
2018-07-05T10:13:09.465Z,74.20
2018-07-05T10:18:03.200Z,74.60
2018-07-05T10:20:29.705Z,74.60
2018-07-05T10:22:56.150Z,74.40
2018-07-05T10:25:22.635Z,74.20
2018-07-05T10:27:49.108Z,74.30
2018-07-05T10:30:28.148Z,74.40
2018-07-05T10:33:07.443Z,74.00
2018-07-05T10:35:33.947Z,74.30
2018-07-05T10:38:01.663Z,74.30
2018-07-05T10:40:41.827Z,74.50
2018-07-05T10:43:20.852Z,74.00
2018-07-05T10:46:00.597Z,72.80
2018-07-05T10:48:39.788Z,72.70
2018-07-05T10:51:19.763Z,73.00
2018-07-05T10:53:59.186Z,72.50
2018-07-05T10:56:38.059Z,72.60
2018-07-05T10:59:17.280Z,72.50
2018-07-05T11:01:56.333Z,72.30
2018-07-05T11:04:35.486Z,71.30
2018-07-05T11:07:14.620Z,71.40
2018-07-05T11:09:53.691Z,71.70
2018-07-05T11:12:32.717Z,71.20
2018-07-05T11:15:11.997Z,70.80
2018-07-05T11:17:50.884Z,70.60
2018-07-05T11:20:30.427Z,70.70
2018-07-05T11:23:09.441Z,71.10
2018-07-05T11:25:48.598Z,71.20
2018-07-05T11:28:27.589Z,72.20
2018-07-05T11:31:06.598Z,71.60
2018-07-05T11:33:45.613Z,72.00
2018-07-05T11:36:24.965Z,70.60
2018-07-05T11:39:05.226Z,71.00
2018-07-05T11:41:44.565Z,70.40
2018-07-05T11:44:23.602Z,70.50
2018-07-05T11:47:02.802Z,70.70
2018-07-05T11:49:41.835Z,69.80
2018-07-05T11:52:21.034Z,69.90
2018-07-05T11:54:59.892Z,69.50
2018-07-05T11:57:39.210Z,69.60
2018-07-05T12:00:18.426Z,69.50
2018-07-05T12:02:57.575Z,69.00
2018-07-05T12:05:36.778Z,69.60
2018-07-05T12:08:15.683Z,69.90
2018-07-05T12:10:54.654Z,69.70
2018-07-05T12:13:33.566Z,69.70
2018-07-05T12:16:12.715Z,69.40
2018-07-05T12:18:51.760Z,68.90
2018-07-05T12:21:30.934Z,69.10
2018-07-05T12:24:10.085Z,69.20
2018-07-05T12:26:49.102Z,69.10
2018-07-05T12:29:28.130Z,69.00
2018-07-05T12:32:07.394Z,69.10
2018-07-05T12:34:46.563Z,69.10
2018-07-05T12:37:25.597Z,69.20
2018-07-05T12:40:04.666Z,69.10
2018-07-05T12:42:43.710Z,69.20
2018-07-05T12:45:22.767Z,69.10
2018-07-05T12:48:01.740Z,68.60
2018-07-05T12:50:40.819Z,68.80
2018-07-05T12:53:19.827Z,69.00
2018-07-05T12:55:58.873Z,68.60
2018-07-05T12:58:37.693Z,68.70
2018-07-05T13:01:16.704Z,68.90
2018-07-05T13:03:55.944Z,67.90
2018-07-05T13:06:35.027Z,67.80
2018-07-05T13:09:14.074Z,67.50
2018-07-05T13:11:53.190Z,67.90
2018-07-05T13:14:35.130Z,68.10
2018-07-05T13:17:13.920Z,67.50
2018-07-05T13:19:53.031Z,67.60
2018-07-05T13:22:32.241Z,67.20
2018-07-05T13:25:11.674Z,65.60
2018-07-05T13:27:50.617Z,65.50
2018-07-05T13:30:29.804Z,65.50
2018-07-05T13:33:08.965Z,65.60
2018-07-05T13:35:48.131Z,65.80
2018-07-05T13:38:27.186Z,65.10
2018-07-05T13:41:06.375Z,64.40
2018-07-05T13:43:45.576Z,64.60
2018-07-05T13:46:24.445Z,64.20
2018-07-05T13:49:03.515Z,64.40
2018-07-05T13:51:42.607Z,64.40
2018-07-05T13:54:21.566Z,64.00
2018-07-05T13:57:00.690Z,63.60
2018-07-05T13:59:39.689Z,64.80
2018-07-05T14:02:18.658Z,65.20
2018-07-05T14:04:57.681Z,65.30
2018-07-05T14:07:36.602Z,65.30
2018-07-05T14:10:15.605Z,65.40
2018-07-05T14:12:54.738Z,65.70
2018-07-05T14:15:33.909Z,65.60
2018-07-05T14:18:13.009Z,65.00
2018-07-05T14:20:51.911Z,65.50
2018-07-05T14:23:30.822Z,65.70
2018-07-05T14:26:09.807Z,65.60
2018-07-05T14:28:48.813Z,65.60
2018-07-05T14:31:27.837Z,65.70
2018-07-05T14:34:06.814Z,65.60
2018-07-05T14:36:45.851Z,66.30
2018-07-05T14:39:24.801Z,65.70
2018-07-05T14:42:03.800Z,66.00
2018-07-05T14:44:42.874Z,65.70
2018-07-05T14:47:21.926Z,65.80
2018-07-05T14:50:00.830Z,65.70
2018-07-05T14:52:39.661Z,65.60
2018-07-05T14:55:18.770Z,65.60
2018-07-05T14:57:57.928Z,65.10
2018-07-05T15:00:37.069Z,65.70
2018-07-05T15:03:16.008Z,65.90
2018-07-05T15:05:55.066Z,65.30
2018-07-05T15:08:34.233Z,64.80
2018-07-05T15:11:13.241Z,64.60
2018-07-05T15:13:52.401Z,64.80
2018-07-05T15:16:31.371Z,63.50
2018-07-05T15:19:10.410Z,63.70
2018-07-05T15:21:49.533Z,62.50
2018-07-05T15:24:28.681Z,62.50
2018-07-05T15:27:07.871Z,62.70
2018-07-05T15:29:46.837Z,62.80
2018-07-05T15:32:25.807Z,63.10
2018-07-05T15:35:04.839Z,60.50
2018-07-05T15:37:43.939Z,59.50
2018-07-05T15:40:22.993Z,59.40
2018-07-05T15:43:01.946Z,59.10
2018-07-05T15:45:41.377Z,58.50
2018-07-05T15:48:20.338Z,56.50
2018-07-05T15:50:59.334Z,55.90
2018-07-05T15:53:38.463Z,55.00
2018-07-05T15:56:17.529Z,54.50
2018-07-05T15:58:56.579Z,54.00
2018-07-05T16:01:35.870Z,53.40
2018-07-05T16:04:14.863Z,53.10
2018-07-05T16:06:54.066Z,52.70
2018-07-05T16:09:33.081Z,52.80
2018-07-05T16:12:12.022Z,51.60
2018-07-05T16:14:51.107Z,51.70
2018-07-05T16:17:30.189Z,51.10
2018-07-05T16:22:43.443Z,51.70
2018-07-05T16:25:22.440Z,52.10
2018-07-05T16:28:01.523Z,52.60
2018-07-05T16:30:40.693Z,52.70
2018-07-05T16:33:19.743Z,52.30
2018-07-05T16:35:58.741Z,51.90
2018-07-05T16:38:37.703Z,51.10
2018-07-05T16:41:16.794Z,51.40
2018-07-05T16:43:56.057Z,51.60
2018-07-05T16:46:34.927Z,50.60
2018-07-05T16:49:13.989Z,50.80
2018-07-05T16:51:53.351Z,51.30
2018-07-05T16:54:32.743Z,51.10
2018-07-05T16:57:12.055Z,51.50
2018-07-05T16:59:51.106Z,51.20
2018-07-05T17:02:30.145Z,51.80
2018-07-05T17:05:09.123Z,53.20
2018-07-05T17:07:48.444Z,52.60
2018-07-05T17:10:27.383Z,52.60
2018-07-05T17:13:06.329Z,52.40
2018-07-05T17:15:45.825Z,52.70
2018-07-05T17:18:25.131Z,52.80
2018-07-05T17:21:04.170Z,53.10
2018-07-05T17:23:43.485Z,53.40
2018-07-05T17:26:22.740Z,53.40
2018-07-05T17:29:02.486Z,53.80
2018-07-05T17:31:41.875Z,53.80
2018-07-05T17:34:20.976Z,53.90
2018-07-05T17:37:00.147Z,53.80
2018-07-05T17:39:39.399Z,53.70
2018-07-05T17:42:18.559Z,53.60
2018-07-05T17:44:57.735Z,53.60
2018-07-05T17:47:36.726Z,54.00
2018-07-05T17:50:15.895Z,54.30
2018-07-05T17:52:54.844Z,54.70
2018-07-05T17:55:33.772Z,54.90
2018-07-05T17:58:12.830Z,55.30
2018-07-05T18:00:52.061Z,55.70
2018-07-05T18:03:32.172Z,56.10
2018-07-05T18:06:11.290Z,56.40
2018-07-05T18:08:50.414Z,56.90
2018-07-05T18:11:29.515Z,57.10
2018-07-05T18:14:08.688Z,58.10
2018-07-05T18:16:47.732Z,58.20
2018-07-05T18:19:26.796Z,58.40
2018-07-05T18:24:39.279Z,58.90
2018-07-05T18:27:18.307Z,59.30
2018-07-05T18:29:57.370Z,59.60
2018-07-05T18:32:36.466Z,59.80
2018-07-05T18:35:15.380Z,60.10
2018-07-05T18:37:54.690Z,60.10
2018-07-05T18:40:33.984Z,60.30
2018-07-05T18:43:12.994Z,61.00
2018-07-05T18:45:52.169Z,60.90
2018-07-05T18:48:31.340Z,61.10
2018-07-05T18:51:10.426Z,61.00
2018-07-05T18:53:49.361Z,61.20
2018-07-05T18:56:28.594Z,61.10
2018-07-05T18:59:07.707Z,61.20
2018-07-05T19:01:46.542Z,61.30
2018-07-05T19:04:25.715Z,61.20
2018-07-05T19:07:04.518Z,61.20
2018-07-05T19:09:43.528Z,61.30
2018-07-05T19:12:22.809Z,61.50
2018-07-05T19:15:02.188Z,61.70
2018-07-05T19:17:41.373Z,62.00
2018-07-05T19:20:20.331Z,61.90
2018-07-05T19:25:32.616Z,62.30
2018-07-05T19:28:12.135Z,62.60
2018-07-05T19:30:51.279Z,62.80
2018-07-05T19:33:30.205Z,62.70
2018-07-05T19:36:09.266Z,62.70
2018-07-05T19:38:48.221Z,62.80
2018-07-05T19:41:27.207Z,62.60
2018-07-05T19:44:06.336Z,62.00
2018-07-05T19:46:45.466Z,61.10
2018-07-05T19:49:24.374Z,61.10
2018-07-05T19:52:03.559Z,60.60
2018-07-05T19:54:42.909Z,60.80
2018-07-05T19:57:22.111Z,60.90
2018-07-05T20:00:01.138Z,61.10
2018-07-05T20:02:40.331Z,61.60
2018-07-05T20:05:19.578Z,62.70
2018-07-05T20:07:58.720Z,62.10
2018-07-05T20:10:37.668Z,62.20
2018-07-05T20:13:16.713Z,62.50
2018-07-05T20:15:55.640Z,62.90
2018-07-05T20:18:34.659Z,63.30
2018-07-05T20:21:13.791Z,64.60
2018-07-05T20:23:52.897Z,64.20
2018-07-05T20:26:32.049Z,64.80
2018-07-05T20:29:11.023Z,65.00
2018-07-05T20:31:49.971Z,65.50
2018-07-05T20:34:29.130Z,65.80
2018-07-05T20:37:08.181Z,66.00
2018-07-05T20:39:47.220Z,66.30
2018-07-05T20:42:26.140Z,66.60
2018-07-05T20:45:05.083Z,66.90
2018-07-05T20:47:44.071Z,67.20
2018-07-05T20:50:23.187Z,67.40
2018-07-05T20:53:02.267Z,68.40
2018-07-05T20:55:41.148Z,67.80
2018-07-05T20:58:20.062Z,68.00
2018-07-05T21:00:59.167Z,68.20
2018-07-05T21:03:38.245Z,68.30
2018-07-05T21:06:17.181Z,68.50
2018-07-05T21:08:56.179Z,68.70
2018-07-05T21:11:35.309Z,68.60
2018-07-05T21:14:14.239Z,68.90
2018-07-05T21:16:53.313Z,69.10
2018-07-05T21:19:32.426Z,69.40
2018-07-05T21:22:11.307Z,69.50
2018-07-05T21:24:50.377Z,69.60
2018-07-05T21:27:29.299Z,69.70
2018-07-05T21:30:08.438Z,69.80
2018-07-05T21:32:47.290Z,69.90
2018-07-05T21:35:26.593Z,70.00
2018-07-05T21:38:05.825Z,69.90
2018-07-05T21:40:44.769Z,70.30
2018-07-05T21:43:23.661Z,70.20
2018-07-05T21:46:02.852Z,70.50
2018-07-05T21:48:42.007Z,70.80
2018-07-05T21:51:21.097Z,71.10
2018-07-05T21:54:00.076Z,71.40
2018-07-05T21:59:12.101Z,71.80
2018-07-05T22:01:51.155Z,71.80
2018-07-05T22:04:30.286Z,71.90
2018-07-05T22:07:09.152Z,71.90
2018-07-05T22:09:48.155Z,72.00
2018-07-05T22:12:27.111Z,72.10
2018-07-05T22:15:06.042Z,72.30
2018-07-05T22:18:51.563Z,72.50
2018-07-05T22:21:30.515Z,72.70
2018-07-05T22:24:15.235Z,72.90
2018-07-05T22:26:54.194Z,73.10
2018-07-05T22:29:39.050Z,73.10
2018-07-05T22:32:18.105Z,73.30
2018-07-05T22:34:57.079Z,73.50
2018-07-05T22:37:36.141Z,73.50
2018-07-05T22:40:15.015Z,73.70
2018-07-05T22:42:53.994Z,73.70
2018-07-05T22:45:32.840Z,74.00
2018-07-05T22:48:11.907Z,74.00
2018-07-05T22:50:51.077Z,74.20
2018-07-05T22:53:30.249Z,74.30
2018-07-05T22:56:09.203Z,74.40
2018-07-05T22:58:48.387Z,74.40
2018-07-05T23:01:27.352Z,74.60
2018-07-05T23:04:06.541Z,74.70
2018-07-05T23:06:45.562Z,74.70
2018-07-05T23:09:24.743Z,74.70
2018-07-05T23:12:03.730Z,74.80
2018-07-05T23:14:42.710Z,74.90
2018-07-05T23:17:21.706Z,74.90
2018-07-05T23:20:00.633Z,75.00
2018-07-05T23:22:39.709Z,75.00
2018-07-05T23:25:18.727Z,75.00
2018-07-05T23:27:57.771Z,75.10
2018-07-05T23:30:36.621Z,75.00
2018-07-05T23:33:15.672Z,75.10
2018-07-05T23:35:54.828Z,75.20
2018-07-05T23:38:33.911Z,75.30
2018-07-05T23:41:13.069Z,75.40
2018-07-05T23:43:52.115Z,75.60
2018-07-05T23:46:37.230Z,75.70
2018-07-05T23:49:22.226Z,75.80
2018-07-05T23:52:01.193Z,75.80
2018-07-05T23:54:40.234Z,75.90
2018-07-05T23:57:19.215Z,76.60
2018-07-05T23:59:58.268Z,76.20
